Zaliv Amerika — C4ZR2 — position and weather

sailwx.info

Track history (hours):
 
Tides and Currents Weather Stations Pressure Air Temp Water Temp Dewpoint Dewpoint Depression Visibility Wind Speed Wind Dir Waves Ship Positions

Zaliv Amerika

Last reported at 2016-Aug-18 09:23 UTC. Time now 2016-Aug-27 18:47 UTC.
Position N 48°31' W 127°22'.
Warning: this ship's position is 9 days out of date.

Length 243 m; draft 14.1 m.

Type: Tanker. MMSI: 210435000.

Date/timePositionNaut miles runAvg speedWind from/ knotsBaromVisibWave heightAir tempDewpointWater temp
2016-Aug-18 09:23N 48°31' W 127°22'1412.1
2016-Aug-18 08:15N 48°31' W 127°01'912.0
2016-Aug-18 07:32N 48°31' W 126°48'1211.8
2016-Aug-18 06:33N 48°31' W 126°31'1212.0
2016-Aug-18 05:33N 48°31' W 126°13'1211.9
2016-Aug-18 04:33N 48°31' W 125°55'1212.1
2016-Aug-18 03:33N 48°31' W 125°37'1212.2
2016-Aug-18 02:33N 48°31' W 125°18'1212.4
2016-Aug-18 01:33N 48°31' W 124°60'1312.8
2016-Aug-18 00:33N 48°29' W 124°40'1212.0
2016-Aug-17 23:33N 48°25' W 124°23'1111.1
2016-Aug-17 22:33N 48°21' W 124°08'1111.0
2016-Aug-17 21:33N 48°17' W 123°53'1111.2
2016-Aug-17 20:32N 48°15' W 123°36'1110.7
2016-Aug-17 19:33N 48°09' W 123°23'1212.2
2016-Aug-17 18:33N 48°16' W 123°08'1413.9
2016-Aug-17 17:33N 48°24' W 122°50'1211.9
2016-Aug-17 16:33N 48°35' W 122°45'7 6.9
2016-Aug-17 15:33N 48°37' W 122°35'6 6.2
2016-Aug-17 14:33N 48°31' W 122°34'0 0.0
2016-Aug-17 13:33N 48°31' W 122°34'0 0.0
2016-Aug-17 12:32N 48°31' W 122°34'0 0.0
2016-Aug-17 11:32N 48°31' W 122°34'0 0.0
2016-Aug-17 10:25N 48°31' W 122°34'0 0.0
2016-Aug-17 09:31N 48°31' W 122°34'0 0.0
2016-Aug-17 08:31N 48°31' W 122°34'0 0.0
2016-Aug-17 07:30N 48°31' W 122°34'0 0.0
2016-Aug-17 06:18N 48°31' W 122°34'0 0.0
2016-Aug-17 05:29N 48°31' W 122°34'0 0.0
2016-Aug-17 04:29N 48°31' W 122°34'0 0.0
2016-Aug-17 03:28N 48°31' W 122°34'0 0.0
2016-Aug-17 02:28N 48°31' W 122°34'0 0.0
2016-Aug-17 01:16N 48°31' W 122°34'0 0.0
2016-Aug-17 00:33N 48°31' W 122°34'0 0.0
2016-Aug-16 08:33N 48°31' W 122°34'2 0.4
2016-Aug-16 04:33N 48°32' W 122°36'5 5.5
2016-Aug-16 03:33N 48°29' W 122°44'1111.2
2016-Aug-16 02:33N 48°21' W 122°55'1313.2
2016-Aug-16 01:33N 48°14' W 123°12'1010.4
2016-Aug-16 00:33N 48°11' W 123°27'8 7.8
2016-Aug-15 23:33N 48°13' W 123°38'10 9.9
2016-Aug-15 22:33N 48°13' W 123°53'1010.4
2016-Aug-15 21:33N 48°17' W 124°08'1010.1
2016-Aug-15 20:33N 48°22' W 124°21'10 9.7
2016-Aug-15 19:33N 48°26' W 124°35'9 9.2
2016-Aug-15 18:33N 48°29' W 124°48'1010.0
2016-Aug-15 17:33N 48°28' W 125°03'1010.4
2016-Aug-15 16:33N 48°28' W 125°18'1010.4
2016-Aug-15 15:33N 48°28' W 125°34'1010.0
2016-Aug-15 14:33N 48°29' W 125°49'10 9.8
2016-Aug-15 13:33N 48°29' W 126°04'1010.2
2016-Aug-15 12:32N 48°29' W 126°19'1010.1
2016-Aug-15 11:33N 48°29' W 126°35'1712.4
2016-Aug-15 10:10N 48°29' W 127°00'812.5
2016-Aug-15 09:31N 48°29' W 127°13'1111.2
2016-Aug-15 08:33N 48°29' W 127°29'1110.5
2016-Aug-15 07:29N 48°29' W 127°46'10 8.5
2016-Aug-15 06:19N 48°31' W 128°01'2212.3
2016-Aug-15 04:31N 48°41' W 128°30'  
Track history (hours):
 
Tides and Currents Weather Stations Pressure Air Temp Water Temp Dewpoint Dewpoint Depression Visibility Wind Speed Wind Dir Waves Ship Positions

Zaliv Amerika

Last reported at 2016-Aug-18 09:23 UTC. Time now 2016-Aug-27 18:47 UTC.
Position N 48°31' W 127°22'.
Warning: this ship's position is 9 days out of date.

Length 243 m; draft 14.1 m.

Type: Tanker. MMSI: 210435000.

Date/timePositionNaut miles runAvg speedWind from/ knotsBaromVisibWave heightAir tempDewpointWater temp
2016-Aug-18 09:23N 48°31' W 127°22'1412.1
2016-Aug-18 08:15N 48°31' W 127°01'912.0
2016-Aug-18 07:32N 48°31' W 126°48'1211.8
2016-Aug-18 06:33N 48°31' W 126°31'1212.0
2016-Aug-18 05:33N 48°31' W 126°13'1211.9
2016-Aug-18 04:33N 48°31' W 125°55'1212.1
2016-Aug-18 03:33N 48°31' W 125°37'1212.2
2016-Aug-18 02:33N 48°31' W 125°18'1212.4
2016-Aug-18 01:33N 48°31' W 124°60'1312.8
2016-Aug-18 00:33N 48°29' W 124°40'1212.0
2016-Aug-17 23:33N 48°25' W 124°23'1111.1
2016-Aug-17 22:33N 48°21' W 124°08'1111.0
2016-Aug-17 21:33N 48°17' W 123°53'1111.2
2016-Aug-17 20:32N 48°15' W 123°36'1110.7
2016-Aug-17 19:33N 48°09' W 123°23'1212.2
2016-Aug-17 18:33N 48°16' W 123°08'1413.9
2016-Aug-17 17:33N 48°24' W 122°50'1211.9
2016-Aug-17 16:33N 48°35' W 122°45'7 6.9
2016-Aug-17 15:33N 48°37' W 122°35'6 6.2
2016-Aug-17 14:33N 48°31' W 122°34'0 0.0
2016-Aug-17 13:33N 48°31' W 122°34'0 0.0
2016-Aug-17 12:32N 48°31' W 122°34'0 0.0
2016-Aug-17 11:32N 48°31' W 122°34'0 0.0
2016-Aug-17 10:25N 48°31' W 122°34'0 0.0
2016-Aug-17 09:31N 48°31' W 122°34'0 0.0
2016-Aug-17 08:31N 48°31' W 122°34'0 0.0
2016-Aug-17 07:30N 48°31' W 122°34'0 0.0
2016-Aug-17 06:18N 48°31' W 122°34'0 0.0
2016-Aug-17 05:29N 48°31' W 122°34'0 0.0
2016-Aug-17 04:29N 48°31' W 122°34'0 0.0
2016-Aug-17 03:28N 48°31' W 122°34'0 0.0
2016-Aug-17 02:28N 48°31' W 122°34'0 0.0
2016-Aug-17 01:16N 48°31' W 122°34'0 0.0
2016-Aug-17 00:33N 48°31' W 122°34'0 0.0
2016-Aug-16 08:33N 48°31' W 122°34'2 0.4
2016-Aug-16 04:33N 48°32' W 122°36'5 5.5
2016-Aug-16 03:33N 48°29' W 122°44'1111.2
2016-Aug-16 02:33N 48°21' W 122°55'1313.2
2016-Aug-16 01:33N 48°14' W 123°12'1010.4
2016-Aug-16 00:33N 48°11' W 123°27'8 7.8
2016-Aug-15 23:33N 48°13' W 123°38'10 9.9
2016-Aug-15 22:33N 48°13' W 123°53'1010.4
2016-Aug-15 21:33N 48°17' W 124°08'1010.1
2016-Aug-15 20:33N 48°22' W 124°21'10 9.7
2016-Aug-15 19:33N 48°26' W 124°35'9 9.2
2016-Aug-15 18:33N 48°29' W 124°48'1010.0
2016-Aug-15 17:33N 48°28' W 125°03'1010.4
2016-Aug-15 16:33N 48°28' W 125°18'1010.4
2016-Aug-15 15:33N 48°28' W 125°34'1010.0
2016-Aug-15 14:33N 48°29' W 125°49'10 9.8
2016-Aug-15 13:33N 48°29' W 126°04'1010.2
2016-Aug-15 12:32N 48°29' W 126°19'1010.1
2016-Aug-15 11:33N 48°29' W 126°35'1712.4
2016-Aug-15 10:10N 48°29' W 127°00'812.5
2016-Aug-15 09:31N 48°29' W 127°13'1111.2
2016-Aug-15 08:33N 48°29' W 127°29'1110.5
2016-Aug-15 07:29N 48°29' W 127°46'10 8.5
2016-Aug-15 06:19N 48°31' W 128°01'2212.3
2016-Aug-15 04:31N 48°41' W 128°30'  

Dump ship's entire track history